Houn Maru — JG5489 — position and weather

sailwx.info

Track history (hours):
 
Tides and Currents Weather Stations Pressure Air Temp Water Temp Dewpoint Dewpoint Depression Visibility Wind Speed Wind Dir Waves Ship Positions

Houn Maru

Last reported at 2014-Jul-23 07:18 UTC. Time now 2014-Jul-24 10:45 UTC.
Position N 34°35' E 134°51'.

Length 91 m; draft 4.7 m.

Type: Tanker. MMSI: 431101172.

Date/timePositionNaut miles runAvg speedWind from/ knotsBaromVisibWave heightAir tempDewpointWater temp
2014-Jul-23 07:18N 34°35' E 134°51'1012.9
2014-Jul-23 06:33N 34°36' E 135°03'1211.8
2014-Jul-23 05:33N 34°26' E 135°10'4 0.7
2014-Jul-23 00:14N 34°25' E 135°14'2 1.3
2014-Jul-22 22:28N 34°23' E 135°13'0 0.0
2014-Jul-22 21:22N 34°23' E 135°13'0 0.0
2014-Jul-22 20:22N 34°23' E 135°13'0 0.0
2014-Jul-22 19:28N 34°23' E 135°13'0 0.0
2014-Jul-22 18:16N 34°23' E 135°13'0 0.0
2014-Jul-22 15:28N 34°23' E 135°13'1 0.7
2014-Jul-22 14:33N 34°24' E 135°12'1111.1
2014-Jul-22 13:33N 34°33' E 135°05'9 0.3
2014-Jul-21 01:32N 34°36' E 134°54'9 9.1
2014-Jul-21 00:33N 34°36' E 135°05'1212.3
2014-Jul-20 23:33N 34°36' E 135°20'  
2014-Jul-18 08:33N 34°35' E 135°26'9 9.3
2014-Jul-18 07:33N 34°31' E 135°16'6 6.1
2014-Jul-18 06:33N 34°25' E 135°14'0 0.1
2014-Jul-18 01:32N 34°25' E 135°14'2 1.4
2014-Jul-18 00:16N 34°24' E 135°13'0 0.0
2014-Jul-17 23:28N 34°24' E 135°13'0 0.0
2014-Jul-17 22:28N 34°23' E 135°13'0 0.0
2014-Jul-17 19:28N 34°23' E 135°13'0 0.0
2014-Jul-17 17:28N 34°23' E 135°13'0 0.0
2014-Jul-17 16:22N 34°23' E 135°13'0 0.0
2014-Jul-17 15:22N 34°24' E 135°13'0 0.0
2014-Jul-17 14:28N 34°24' E 135°13'0 0.1
2014-Jul-17 13:28N 34°24' E 135°13'7 7.3
2014-Jul-17 12:33N 34°29' E 135°08'1010.4
2014-Jul-17 11:33N 34°37' E 135°00'5 0.2
2014-Jul-16 07:27N 34°36' E 134°54'8 8.6
2014-Jul-16 06:33N 34°36' E 135°04'1111.4
2014-Jul-16 05:33N 34°26' E 135°10'4 3.2
2014-Jul-16 04:23N 34°25' E 135°14'0 0.0
2014-Jul-16 02:23N 34°25' E 135°14'0 0.0
2014-Jul-16 00:17N 34°25' E 135°14'2 2.7
2014-Jul-15 23:30N 34°24' E 135°13'0 0.0
2014-Jul-15 22:21N 34°24' E 135°13'0 0.0
2014-Jul-15 21:33N 34°23' E 135°13'0 0.0
2014-Jul-15 20:27N 34°23' E 135°13'0 0.0
2014-Jul-15 19:33N 34°23' E 135°13'0 0.0
2014-Jul-15 18:33N 34°23' E 135°13'0 0.0
2014-Jul-15 16:33N 34°23' E 135°13'0 0.0
2014-Jul-15 15:27N 34°23' E 135°13'0 0.1
2014-Jul-15 14:33N 34°24' E 135°13'0 0.0
2014-Jul-15 13:33N 34°24' E 135°13'5 5.1
2014-Jul-15 12:33N 34°27' E 135°08'1010.0
2014-Jul-15 11:33N 34°36' E 135°03'4 0.1
2014-Jul-14 00:32N 34°37' E 134°58'1312.8
2014-Jul-13 23:33N 34°33' E 135°13'5 5.0
2014-Jul-13 22:30N 34°32' E 135°19'0 0.0
2014-Jul-13 21:18N 34°32' E 135°19'0 0.0
2014-Jul-13 20:30N 34°32' E 135°19'0 0.1
2014-Jul-13 19:24N 34°32' E 135°19'0 0.0
2014-Jul-13 18:30N 34°32' E 135°19'0 0.0
2014-Jul-13 17:30N 34°32' E 135°19'0 0.1
2014-Jul-13 16:30N 34°32' E 135°19'0 0.1
2014-Jul-13 15:30N 34°32' E 135°19'0 0.0
2014-Jul-13 14:24N 34°32' E 135°19'0 0.0
2014-Jul-13 13:24N 34°32' E 135°19'0 0.0
2014-Jul-13 12:30N 34°32' E 135°19'0 0.0
2014-Jul-13 11:30N 34°32' E 135°19'0 0.0
2014-Jul-13 10:30N 34°32' E 135°19'0 0.0
2014-Jul-13 09:24N 34°32' E 135°19'0 0.0
2014-Jul-13 08:30N 34°32' E 135°19'0 0.0
2014-Jul-13 07:30N 34°32' E 135°19'  
Track history (hours):
 
Tides and Currents Weather Stations Pressure Air Temp Water Temp Dewpoint Dewpoint Depression Visibility Wind Speed Wind Dir Waves Ship Positions

Houn Maru

Last reported at 2014-Jul-23 07:18 UTC. Time now 2014-Jul-24 10:45 UTC.
Position N 34°35' E 134°51'.

Length 91 m; draft 4.7 m.

Type: Tanker. MMSI: 431101172.

Date/timePositionNaut miles runAvg speedWind from/ knotsBaromVisibWave heightAir tempDewpointWater temp
2014-Jul-23 07:18N 34°35' E 134°51'1012.9
2014-Jul-23 06:33N 34°36' E 135°03'1211.8
2014-Jul-23 05:33N 34°26' E 135°10'4 0.7
2014-Jul-23 00:14N 34°25' E 135°14'2 1.3
2014-Jul-22 22:28N 34°23' E 135°13'0 0.0
2014-Jul-22 21:22N 34°23' E 135°13'0 0.0
2014-Jul-22 20:22N 34°23' E 135°13'0 0.0
2014-Jul-22 19:28N 34°23' E 135°13'0 0.0
2014-Jul-22 18:16N 34°23' E 135°13'0 0.0
2014-Jul-22 15:28N 34°23' E 135°13'1 0.7
2014-Jul-22 14:33N 34°24' E 135°12'1111.1
2014-Jul-22 13:33N 34°33' E 135°05'9 0.3
2014-Jul-21 01:32N 34°36' E 134°54'9 9.1
2014-Jul-21 00:33N 34°36' E 135°05'1212.3
2014-Jul-20 23:33N 34°36' E 135°20'  
2014-Jul-18 08:33N 34°35' E 135°26'9 9.3
2014-Jul-18 07:33N 34°31' E 135°16'6 6.1
2014-Jul-18 06:33N 34°25' E 135°14'0 0.1
2014-Jul-18 01:32N 34°25' E 135°14'2 1.4
2014-Jul-18 00:16N 34°24' E 135°13'0 0.0
2014-Jul-17 23:28N 34°24' E 135°13'0 0.0
2014-Jul-17 22:28N 34°23' E 135°13'0 0.0
2014-Jul-17 19:28N 34°23' E 135°13'0 0.0
2014-Jul-17 17:28N 34°23' E 135°13'0 0.0
2014-Jul-17 16:22N 34°23' E 135°13'0 0.0
2014-Jul-17 15:22N 34°24' E 135°13'0 0.0
2014-Jul-17 14:28N 34°24' E 135°13'0 0.1
2014-Jul-17 13:28N 34°24' E 135°13'7 7.3
2014-Jul-17 12:33N 34°29' E 135°08'1010.4
2014-Jul-17 11:33N 34°37' E 135°00'5 0.2
2014-Jul-16 07:27N 34°36' E 134°54'8 8.6
2014-Jul-16 06:33N 34°36' E 135°04'1111.4
2014-Jul-16 05:33N 34°26' E 135°10'4 3.2
2014-Jul-16 04:23N 34°25' E 135°14'0 0.0
2014-Jul-16 02:23N 34°25' E 135°14'0 0.0
2014-Jul-16 00:17N 34°25' E 135°14'2 2.7
2014-Jul-15 23:30N 34°24' E 135°13'0 0.0
2014-Jul-15 22:21N 34°24' E 135°13'0 0.0
2014-Jul-15 21:33N 34°23' E 135°13'0 0.0
2014-Jul-15 20:27N 34°23' E 135°13'0 0.0
2014-Jul-15 19:33N 34°23' E 135°13'0 0.0
2014-Jul-15 18:33N 34°23' E 135°13'0 0.0
2014-Jul-15 16:33N 34°23' E 135°13'0 0.0
2014-Jul-15 15:27N 34°23' E 135°13'0 0.1
2014-Jul-15 14:33N 34°24' E 135°13'0 0.0
2014-Jul-15 13:33N 34°24' E 135°13'5 5.1
2014-Jul-15 12:33N 34°27' E 135°08'1010.0
2014-Jul-15 11:33N 34°36' E 135°03'4 0.1
2014-Jul-14 00:32N 34°37' E 134°58'1312.8
2014-Jul-13 23:33N 34°33' E 135°13'5 5.0
2014-Jul-13 22:30N 34°32' E 135°19'0 0.0
2014-Jul-13 21:18N 34°32' E 135°19'0 0.0
2014-Jul-13 20:30N 34°32' E 135°19'0 0.1
2014-Jul-13 19:24N 34°32' E 135°19'0 0.0
2014-Jul-13 18:30N 34°32' E 135°19'0 0.0
2014-Jul-13 17:30N 34°32' E 135°19'0 0.1
2014-Jul-13 16:30N 34°32' E 135°19'0 0.1
2014-Jul-13 15:30N 34°32' E 135°19'0 0.0
2014-Jul-13 14:24N 34°32' E 135°19'0 0.0
2014-Jul-13 13:24N 34°32' E 135°19'0 0.0
2014-Jul-13 12:30N 34°32' E 135°19'0 0.0
2014-Jul-13 11:30N 34°32' E 135°19'0 0.0
2014-Jul-13 10:30N 34°32' E 135°19'0 0.0
2014-Jul-13 09:24N 34°32' E 135°19'0 0.0
2014-Jul-13 08:30N 34°32' E 135°19'0 0.0
2014-Jul-13 07:30N 34°32' E 135°19'  

Dump ship's entire track history